地図

経路データ

SID SEASON NUMBER BASIN SUBBASIN NAME ISO_TIME NATURE LAT LON WMO_WIND WMO_PRES WMO_AGENCY TRACK_TYPE DIST2LAND LANDFALL IFLAG USA_AGENCY USA_ATCF_ID USA_LAT USA_LON USA_RECORD USA_STATUS USA_WIND USA_PRES USA_SSHS USA_R34_NE USA_R34_SE USA_R34_SW USA_R34_NW USA_R50_NE USA_R50_SE USA_R50_SW USA_R50_NW USA_R64_NE USA_R64_SE USA_R64_SW USA_R64_NW USA_POCI USA_ROCI USA_RMW USA_EYE TOKYO_LAT TOKYO_LON TOKYO_GRADE TOKYO_WIND TOKYO_PRES TOKYO_R50_DIR TOKYO_R50_LONG TOKYO_R50_SHORT TOKYO_R30_DIR TOKYO_R30_LONG TOKYO_R30_SHORT TOKYO_LAND CMA_LAT CMA_LON CMA_CAT CMA_WIND CMA_PRES HKO_LAT HKO_LON HKO_CAT HKO_WIND HKO_PRES NEWDELHI_LAT NEWDELHI_LON NEWDELHI_GRADE NEWDELHI_WIND NEWDELHI_PRES NEWDELHI_CI NEWDELHI_DP NEWDELHI_POCI REUNION_LAT REUNION_LON REUNION_TYPE REUNION_WIND REUNION_PRES REUNION_TNUM REUNION_CI REUNION_RMW REUNION_R34_NE REUNION_R34_SE REUNION_R34_SW REUNION_R34_NW REUNION_R50_NE REUNION_R50_SE REUNION_R50_SW REUNION_R50_NW REUNION_R64_NE REUNION_R64_SE REUNION_R64_SW REUNION_R64_NW BOM_LAT BOM_LON BOM_TYPE BOM_WIND BOM_PRES BOM_TNUM BOM_CI BOM_RMW BOM_R34_NE BOM_R34_SE BOM_R34_SW BOM_R34_NW BOM_R50_NE BOM_R50_SE BOM_R50_SW BOM_R50_NW BOM_R64_NE BOM_R64_SE BOM_R64_SW BOM_R64_NW BOM_ROCI BOM_POCI BOM_EYE BOM_POS_METHOD BOM_PRES_METHOD NADI_LAT NADI_LON NADI_CAT NADI_WIND NADI_PRES WELLINGTON_LAT WELLINGTON_LON WELLINGTON_WIND WELLINGTON_PRES DS824_LAT DS824_LON DS824_STAGE DS824_WIND DS824_PRES TD9636_LAT TD9636_LON TD9636_STAGE TD9636_WIND TD9636_PRES TD9635_LAT TD9635_LON TD9635_WIND TD9635_PRES TD9635_ROCI NEUMANN_LAT NEUMANN_LON NEUMANN_CLASS NEUMANN_WIND NEUMANN_PRES MLC_LAT MLC_LON MLC_CLASS MLC_WIND MLC_PRES USA_GUST BOM_GUST BOM_GUST_PER REUNION_GUST REUNION_GUST_PER USA_SEAHGT USA_SEARAD_NE USA_SEARAD_SE USA_SEARAD_SW USA_SEARAD_NW STORM_SPEED STORM_DIR
1891325S17069 1892 62 SI MM NOT_NAMED 1891-11-21 06:00:00 NR -17.4000 69.4000 reunion main 1262 1252 _____O________ -1 -17.4000 69.4000 99 9.90000 2 251
1891325S17069 1892 62 SI MM NOT_NAMED 1891-11-21 09:00:00 NR -17.4377 69.2842 main 1252 1239 _____P________ -1 -17.4377 69.2842 99 2 251
1891325S17069 1892 62 SI MM NOT_NAMED 1891-11-21 12:00:00 NR -17.4777 69.1652 main 1239 1218 _____P________ -1 -17.4777 69.1652 99 2 250
1891325S17069 1892 62 SI MM NOT_NAMED 1891-11-21 15:00:00 NR -17.5225 69.0396 main 1218 1205 _____P________ -1 -17.5225 69.0396 99 3 249
1891325S17069 1892 62 SI MM NOT_NAMED 1891-11-21 18:00:00 NR -17.5743 68.9043 main 1205 1195 _____P________ -1 -17.5743 68.9043 99 3 247
1891325S17069 1892 62 SI MM NOT_NAMED 1891-11-21 21:00:00 NR -17.6356 68.7560 main 1195 1171 _____P________ -1 -17.6356 68.7560 99 3 246
1891325S17069 1892 62 SI MM NOT_NAMED 1891-11-22 00:00:00 NR -17.7088 68.5914 main 1171 1148 _____P________ -1 -17.7088 68.5914 99 4 244
1891325S17069 1892 62 SI MM NOT_NAMED 1891-11-22 03:00:00 NR -17.7961 68.4071 main 1148 1125 _____P________ -1 -17.7961 68.4071 99 4 243
1891325S17069 1892 62 SI MM NOT_NAMED 1891-11-22 06:00:00 NR -17.9000 68.2000 reunion main 1125 1101 _____O________ -1 -17.9000 68.2000 99 9.90000 5 242
1891325S17069 1892 62 SI MM NOT_NAMED 1891-11-22 09:00:00 NR -18.0221 67.9681 main 1101 1065 _____P________ -1 -18.0221 67.9681 99 5 240
1891325S17069 1892 62 SI MM NOT_NAMED 1891-11-22 12:00:00 NR -18.1617 67.7158 main 1065 1042 _____P________ -1 -18.1617 67.7158 99 6 239
1891325S17069 1892 62 SI MM NOT_NAMED 1891-11-22 15:00:00 NR -18.3176 67.4488 main 1031 1006 _____P________ -1 -18.3176 67.4488 99 6 238
1891325S17069 1892 62 SI MM NOT_NAMED 1891-11-22 18:00:00 NR -18.4886 67.1730 main 1006 970 _____P________ -1 -18.4886 67.1730 99 6 236
1891325S17069 1892 62 SI MM NOT_NAMED 1891-11-22 21:00:00 NR -18.6735 66.8944 main 970 934 _____P________ -1 -18.6735 66.8944 99 7 234
1891325S17069 1892 62 SI MM NOT_NAMED 1891-11-23 00:00:00 NR -18.8711 66.6187 main 934 910 _____P________ -1 -18.8711 66.6187 99 7 232
1891325S17069 1892 62 SI MM NOT_NAMED 1891-11-23 03:00:00 NR -19.0803 66.3519 main 910 875 _____P________ -1 -19.0803 66.3519 99 7 229
1891325S17069 1892 62 SI MM NOT_NAMED 1891-11-23 06:00:00 NR -19.3000 66.1000 reunion main 875 851 _____O________ -1 -19.3000 66.1000 99 9.90000 6 225
1891325S17069 1892 62 SI MM NOT_NAMED 1891-11-23 09:00:00 NR -19.5372 65.8658 main 851 826 _____P________ -1 -19.5372 65.8658 99 7 221
1891325S17069 1892 62 SI MM NOT_NAMED 1891-11-23 12:00:00 NR -19.7890 65.6419 main 816 793 _____P________ -1 -19.7890 65.6419 99 7 219
1891325S17069 1892 62 SI MM NOT_NAMED 1891-11-23 15:00:00 NR -20.0501 65.4299 main 793 771 _____P________ -1 -20.0501 65.4299 99 7 216
1891325S17069 1892 62 SI MM NOT_NAMED 1891-11-23 18:00:00 NR -20.3147 65.2311 main 771 760 _____P________ -1 -20.3147 65.2311 99 6 214
1891325S17069 1892 62 SI MM NOT_NAMED 1891-11-23 21:00:00 NR -20.5775 65.0471 main 750 740 _____P________ -1 -20.5775 65.0471 99 6 212
1891325S17069 1892 62 SI MM NOT_NAMED 1891-11-24 00:00:00 NR -20.8330 64.8796 main 741 722 _____P________ -1 -20.8330 64.8796 99 6 211
1891325S17069 1892 62 SI MM NOT_NAMED 1891-11-24 03:00:00 NR -21.0757 64.7300 main 723 714 _____P________ -1 -21.0757 64.7300 99 5 209
1891325S17069 1892 62 SI MM NOT_NAMED 1891-11-24 06:00:00 NR -21.3000 64.6000 reunion main 715 706 _____O________ -1 -21.3000 64.6000 99 9.90000 5 208
1891325S17069 1892 62 SI MM NOT_NAMED 1891-11-24 09:00:00 NR -21.5019 64.4906 main 708 700 _____P________ -1 -21.5019 64.4906 99 4 206
1891325S17069 1892 62 SI MM NOT_NAMED 1891-11-24 12:00:00 NR -21.6831 64.3999 main 702 694 _____P________ -1 -21.6831 64.3999 99 4 204
1891325S17069 1892 62 SI MM NOT_NAMED 1891-11-24 15:00:00 NR -21.8464 64.3252 main 694 694 _____P________ -1 -21.8464 64.3252 99 3 202
1891325S17069 1892 62 SI MM NOT_NAMED 1891-11-24 18:00:00 NR -21.9949 64.2640 main 700 690 _____P________ -1 -21.9949 64.2640 99 3 200
1891325S17069 1892 62 SI MM NOT_NAMED 1891-11-24 21:00:00 NR -22.1315 64.2136 main 693 693 _____P________ -1 -22.1315 64.2136 99 3 199
1891325S17069 1892 62 SI MM NOT_NAMED 1891-11-25 00:00:00 NR -22.2593 64.1713 main 699 689 _____P________ -1 -22.2593 64.1713 99 3 196
1891325S17069 1892 62 SI MM NOT_NAMED 1891-11-25 03:00:00 NR -22.3811 64.1343 main 693 693 _____P________ -1 -22.3811 64.1343 99 3 196
1891325S17069 1892 62 SI MM NOT_NAMED 1891-11-25 06:00:00 NR -22.5000 64.1000 reunion main 696 _____O________ -1 -22.5000 64.1000 99 9.90000 2 198

IBTrACS Databaseについて

本データベースは、米国NOAAが公開する1842年以降の世界の熱帯低気圧のベストトラックデータアーカイブInternational Best Track Archive for Climate Stewardship (IBTrACS)を、ウェブで閲覧しやすい形式に変換したものです。

最終更新日:2021-10-08